Time;durP1;ratioP1;P1;durP2;ratioP2;P2;SDS_P1;SDS_P2;PMS_P1;PMS_P2;Temp;Humidity;BMP_temperature;BMP_pressure;BME280_temperature;BME280_humidity;BME280_pressure;Samples;Min_cycle;Max_cycle;Signal;HPM_P1;HPM_P2
2021/10/01 00:00:09;;;;;;;5.73;3.37;;;;;;;6.43;100.00;101770.59;5048484;28;20040;-80
2021/10/01 00:02:36;;;;;;;4.47;3.00;;;;;;;6.42;100.00;101769.72;5047590;28;20084;-81
2021/10/01 00:05:03;;;;;;;5.90;3.40;;;;;;;6.40;100.00;101770.56;5066931;28;20401;-80
2021/10/01 00:07:29;;;;;;;4.33;3.50;;;;;;;6.38;100.00;101767.00;5050100;28;20048;-80
2021/10/01 00:09:56;;;;;;;4.97;3.23;;;;;;;6.42;100.00;101772.34;5034934;28;20037;-80
2021/10/01 00:12:23;;;;;;;4.03;3.27;;;;;;;6.42;100.00;101768.84;5066757;28;20036;-81
2021/10/01 00:14:50;;;;;;;4.97;3.57;;;;;;;6.45;100.00;101772.38;5052151;28;20033;-80
2021/10/01 00:17:16;;;;;;;5.23;3.43;;;;;;;6.36;100.00;101767.00;5066921;28;20099;-82
2021/10/01 00:19:43;;;;;;;4.07;3.10;;;;;;;6.41;100.00;101764.47;5042653;28;20398;-81
2021/10/01 00:22:11;;;;;;;5.33;4.00;;;;;;;6.36;100.00;101758.25;5028579;28;20044;-80
2021/10/01 00:24:37;;;;;;;5.57;3.60;;;;;;;6.34;100.00;101760.84;5124431;22;20044;-81
2021/10/01 00:27:09;;;;;;;6.63;3.60;;;;;;;6.30;100.00;101756.41;5052431;28;20040;-81
2021/10/01 00:29:36;;;;;;;5.03;3.20;;;;;;;6.33;100.00;101751.22;5051441;28;20048;-82
2021/10/01 00:32:03;;;;;;;4.10;3.43;;;;;;;6.29;100.00;101753.75;5082067;28;20052;-82
2021/10/01 00:34:30;;;;;;;5.20;3.30;;;;;;;6.23;100.00;101751.06;5087609;28;20436;-81
2021/10/01 00:36:57;;;;;;;5.60;3.83;;;;;;;6.23;100.00;101745.81;5050413;28;20490;-82
2021/10/01 00:39:23;;;;;;;5.33;3.17;;;;;;;6.21;100.00;101745.78;5048547;28;20041;-81
2021/10/01 00:41:50;;;;;;;4.87;3.43;;;;;;;6.17;100.00;101739.63;5088499;28;20386;-82
2021/10/01 00:44:16;;;;;;;4.40;3.37;;;;;;;6.18;100.00;101730.00;5063956;28;20052;-81
2021/10/01 00:46:43;;;;;;;4.60;3.10;;;;;;;6.16;100.00;101729.97;5029115;28;20049;-82
2021/10/01 00:49:10;;;;;;;6.37;3.43;;;;;;;6.15;100.00;101724.72;5054641;28;20093;-81
2021/10/01 00:51:39;;;;;;;3.83;3.20;;;;;;;6.19;100.00;101718.63;5072061;28;20040;-82
2021/10/01 00:54:08;;;;;;;4.47;3.43;;;;;;;6.16;100.00;101722.09;5033949;28;20091;-81
2021/10/01 00:56:35;;;;;;;3.97;2.93;;;;;;;6.17;100.00;101716.00;5055252;28;20044;-81
2021/10/01 00:59:02;;;;;;;4.73;3.17;;;;;;;6.24;100.00;101714.34;5045843;28;20037;-81
2021/10/01 01:01:29;;;;;;;4.67;3.13;;;;;;;6.28;100.00;101716.16;5037217;28;20048;-82
2021/10/01 01:04:00;;;;;;;6.17;3.37;;;;;;;6.27;100.00;101716.13;5051506;28;20504;-81
2021/10/01 01:07:00;;;;;;;5.10;3.10;;;;;;;6.27;100.00;101710.88;5056441;28;20043;-82
2021/10/01 01:09:49;;;;;;;5.80;3.10;;;;;;;6.23;100.00;101711.72;5044975;28;20044;-82
2021/10/01 01:12:39;;;;;;;3.73;3.07;;;;;;;6.23;100.00;101706.47;5035056;28;20053;-82
2021/10/01 01:15:09;;;;;;;5.50;3.17;;;;;;;6.23;100.00;101709.97;5053846;28;20044;-82
2021/10/01 01:17:47;;;;;;;5.63;2.73;;;;;;;6.17;100.00;101709.88;5054063;28;20080;-82
2021/10/01 01:20:27;;;;;;;5.33;3.47;;;;;;;6.17;100.00;101708.13;5030316;28;20579;-81
2021/10/01 01:23:15;;;;;;;5.30;3.23;;;;;;;6.16;100.00;101705.50;5068645;28;20044;-81
2021/10/01 01:25:43;;;;;;;3.67;2.87;;;;;;;6.13;100.00;101706.31;5076569;28;20056;-82
2021/10/01 01:28:25;;;;;;;3.13;2.70;;;;;;;6.19;100.00;101701.16;5053740;28;20036;-81
2021/10/01 01:30:51;;;;;;;3.70;2.70;;;;;;;6.17;100.00;101700.25;5076343;28;20390;-83
2021/10/01 01:33:22;;;;;;;4.73;2.83;;;;;;;6.19;100.00;101692.41;5047105;28;20132;-81
2021/10/01 01:35:51;;;;;;;4.23;3.13;;;;;;;6.24;100.00;101692.47;5038381;28;20067;-82
2021/10/01 01:38:24;;;;;;;4.87;2.80;;;;;;;6.16;100.00;101695.88;5037048;28;20048;-81
2021/10/01 01:40:53;;;;;;;4.30;2.73;;;;;;;6.21;100.00;101693.28;5039270;28;20493;-82
2021/10/01 01:43:19;;;;;;;5.63;3.37;;;;;;;6.26;100.00;101698.63;5051475;28;20382;-81
2021/10/01 01:45:47;;;;;;;6.63;3.27;;;;;;;6.34;100.00;101699.59;5054247;28;20095;-82
2021/10/01 01:48:14;;;;;;;5.03;3.20;;;;;;;6.25;100.00;101694.25;5037413;28;20472;-83
2021/10/01 01:50:42;;;;;;;8.90;3.63;;;;;;;6.21;100.00;101690.66;5072873;28;20472;-82
2021/10/01 01:53:09;;;;;;;5.90;3.50;;;;;;;6.22;100.00;101684.56;5069982;28;20037;-81
2021/10/01 01:55:38;;;;;;;4.60;3.00;;;;;;;6.22;100.00;101689.81;5070866;28;20040;-82
2021/10/01 01:58:06;;;;;;;7.03;3.10;;;;;;;6.21;100.00;101688.94;5054125;28;20040;-81
2021/10/01 02:00:33;;;;;;;4.70;3.53;;;;;;;6.31;100.00;101694.34;5054066;28;20045;-81
2021/10/01 02:03:01;;;;;;;4.23;2.77;;;;;;;6.21;100.00;101694.19;5034116;28;20068;-81
2021/10/01 02:05:28;;;;;;;5.30;3.37;;;;;;;6.19;100.00;101690.66;5038057;28;20037;-81
2021/10/01 02:07:56;;;;;;;6.60;3.67;;;;;;;6.15;100.00;101686.25;5047568;28;20597;-81
2021/10/01 02:10:23;;;;;;;3.50;2.90;;;;;;;6.18;100.00;101686.28;5046677;28;20094;-81
2021/10/01 02:12:54;;;;;;;5.07;3.50;;;;;;;6.26;100.00;101683.75;5047647;28;20044;-81
2021/10/01 02:15:21;;;;;;;3.90;2.90;;;;;;;6.18;100.00;101682.78;5056429;28;20513;-82
2021/10/01 02:17:51;;;;;;;4.60;2.80;;;;;;;6.14;100.00;101679.22;5055027;28;20051;-81
2021/10/01 02:20:18;;;;;;;7.43;3.23;;;;;;;6.14;100.00;101676.59;5054958;28;20048;-82
2021/10/01 02:22:46;;;;;;;5.43;3.17;;;;;;;6.20;100.00;101673.16;5037463;28;20567;-81
2021/10/01 02:28:03;;;;;;;6.60;2.93;;;;;;;6.24;100.00;101676.72;5053837;28;20492;-82
2021/10/01 02:30:32;;;;;;;5.93;3.33;;;;;;;6.21;100.00;101672.31;5056030;28;20048;-81
2021/10/01 02:33:07;;;;;;;5.27;3.73;;;;;;;6.16;100.00;101676.63;5038395;28;20044;-81
2021/10/01 02:35:34;;;;;;;4.23;2.90;;;;;;;6.10;100.00;101677.41;5072812;28;20043;-81
2021/10/01 02:38:00;;;;;;;3.83;3.17;;;;;;;6.16;100.00;101677.50;5071312;28;20041;-81
2021/10/01 02:40:27;;;;;;;4.03;3.10;;;;;;;6.12;100.00;101673.06;5067553;28;20055;-82
2021/10/01 02:42:54;;;;;;;5.10;3.40;;;;;;;6.12;100.00;101672.19;5069998;28;20036;-81
2021/10/01 02:45:21;;;;;;;6.43;3.03;;;;;;;6.10;100.00;101679.16;5056459;28;20048;-82
2021/10/01 02:47:47;;;;;;;4.47;2.90;;;;;;;6.15;100.00;101669.63;5037856;28;20118;-82
2021/10/01 02:50:19;;;;;;;5.70;3.37;;;;;;;6.07;100.00;101666.88;5055453;28;20098;-81
2021/10/01 02:52:54;;;;;;;5.87;3.50;;;;;;;6.15;100.00;101656.50;5053808;28;20104;-82
2021/10/01 02:56:05;;;;;;;4.10;3.33;;;;;;;6.11;100.00;101660.81;5051332;28;20706;-81
2021/10/01 02:58:40;;;;;;;4.40;2.97;;;;;;;6.08;100.00;101658.16;5005676;28;20033;-81
2021/10/01 03:01:09;;;;;;;6.13;3.47;;;;;;;6.04;100.00;101648.47;5028681;28;20136;-82
2021/10/01 03:03:37;;;;;;;4.33;3.33;;;;;;;6.07;100.00;101651.16;5028839;28;20052;-81
2021/10/01 03:06:05;;;;;;;6.27;3.23;;;;;;;6.05;100.00;101644.97;5062342;28;20040;-82
2021/10/01 03:08:33;;;;;;;4.40;3.87;;;;;;;6.09;100.00;101641.53;5030611;28;20526;-81
2021/10/01 03:11:01;;;;;;;6.23;3.87;;;;;;;6.07;100.00;101640.66;5040992;28;20040;-81
2021/10/01 03:13:28;;;;;;;4.73;3.43;;;;;;;6.05;100.00;101646.72;5026487;28;20044;-82
2021/10/01 03:15:57;;;;;;;4.97;3.50;;;;;;;6.01;100.00;101642.31;5071582;28;20036;-83
2021/10/01 03:18:24;;;;;;;5.13;3.70;;;;;;;6.02;100.00;101634.44;5059784;28;20078;-82
2021/10/01 03:20:51;;;;;;;5.93;3.33;;;;;;;6.08;100.00;101631.03;5034752;28;20041;-82
2021/10/01 03:23:20;;;;;;;5.50;3.27;;;;;;;6.08;100.00;101638.91;5053355;28;20045;-81
2021/10/01 03:25:49;;;;;;;5.03;3.60;;;;;;;6.06;100.00;101641.53;5056511;28;20032;-80
2021/10/01 03:28:16;;;;;;;4.53;3.97;;;;;;;6.03;100.00;101641.47;5052243;28;20049;-81
2021/10/01 03:30:46;;;;;;;3.70;3.27;;;;;;;6.11;100.00;101633.69;5033542;28;20044;-81
2021/10/01 03:33:14;;;;;;;7.60;3.87;;;;;;;6.06;100.00;101635.38;5033496;28;20049;-81
2021/10/01 03:35:42;;;;;;;6.47;3.37;;;;;;;6.10;100.00;101629.31;5049422;28;20064;-81
2021/10/01 03:38:10;;;;;;;6.00;3.40;;;;;;;6.11;100.00;101637.19;5051464;28;20044;-82
2021/10/01 03:40:37;;;;;;;5.37;3.60;;;;;;;6.06;100.00;101636.28;5040428;28;20045;-81
2021/10/01 03:43:03;;;;;;;4.57;4.00;;;;;;;6.03;100.00;101636.22;5044965;28;20047;-81
2021/10/01 03:45:30;;;;;;;4.80;3.33;;;;;;;5.99;100.00;101631.78;5054097;28;20091;-81
2021/10/01 03:47:57;;;;;;;4.00;2.90;;;;;;;6.04;100.00;101635.34;5069400;28;20140;-82
2021/10/01 03:50:23;;;;;;;5.87;3.33;;;;;;;6.06;100.00;101630.16;5049413;28;20045;-81
2021/10/01 03:52:50;;;;;;;7.03;3.40;;;;;;;6.04;100.00;101626.59;5053126;28;20044;-81
2021/10/01 03:55:21;;;;;;;4.50;3.57;;;;;;;6.01;100.00;101634.44;5051235;28;20044;-82
2021/10/01 03:57:48;;;;;;;6.67;3.83;;;;;;;6.00;100.00;101630.94;5052532;28;20041;-82
2021/10/01 04:00:17;;;;;;;4.63;2.90;;;;;;;6.02;100.00;101629.19;5050200;28;20059;-81
2021/10/01 04:02:44;;;;;;;3.57;3.17;;;;;;;5.96;100.00;101634.34;5035181;28;20040;-81
2021/10/01 04:05:12;;;;;;;7.50;4.40;;;;;;;6.01;100.00;101627.44;5022836;28;20510;-81
2021/10/01 04:07:39;;;;;;;5.17;3.90;;;;;;;5.95;100.00;101631.72;5066726;28;20451;-80
2021/10/01 04:10:06;;;;;;;4.47;3.10;;;;;;;6.03;100.00;101630.09;5053891;28;20135;-81
2021/10/01 04:12:33;;;;;;;5.03;3.87;;;;;;;6.05;100.00;101625.72;5047167;28;20044;-80
2021/10/01 04:15:00;;;;;;;4.93;3.70;;;;;;;6.04;100.00;101630.09;5061836;28;20040;-80
2021/10/01 04:17:27;;;;;;;5.77;3.43;;;;;;;5.96;100.00;101622.97;5031373;28;20040;-81
2021/10/01 04:19:53;;;;;;;6.00;3.40;;;;;;;5.97;100.00;101628.28;5081037;28;20546;-82
2021/10/01 04:22:20;;;;;;;4.40;3.63;;;;;;;5.98;100.00;101631.78;5052349;28;20119;-81
2021/10/01 04:24:47;;;;;;;4.53;4.07;;;;;;;5.94;100.00;101636.09;5072760;28;20048;-81
2021/10/01 04:27:13;;;;;;;6.23;3.30;;;;;;;5.96;100.00;101626.50;5068904;28;20463;-82
2021/10/01 04:29:42;;;;;;;5.30;3.63;;;;;;;5.95;100.00;101624.72;5053334;28;20040;-81
2021/10/01 04:32:10;;;;;;;5.03;3.57;;;;;;;5.97;100.00;101625.66;5068856;28;20036;-81
2021/10/01 04:34:51;;;;;;;4.50;3.27;;;;;;;5.89;100.00;101622.88;5051750;28;20098;-81
2021/10/01 04:37:18;;;;;;;4.60;3.10;;;;;;;5.93;100.00;101622.09;5049459;28;20457;-82
2021/10/01 04:39:45;;;;;;;4.87;3.00;;;;;;;5.91;100.00;101612.44;5035368;28;20521;-81
2021/10/01 04:42:11;;;;;;;3.73;3.37;;;;;;;5.91;100.00;101613.31;5049301;28;20048;-81
2021/10/01 04:44:38;;;;;;;5.03;3.37;;;;;;;5.91;100.00;101613.31;5042886;28;20037;-80
2021/10/01 04:47:05;;;;;;;4.00;3.60;;;;;;;5.85;100.00;101604.44;5026507;28;20055;-80
2021/10/01 04:49:31;;;;;;;3.33;3.00;;;;;;;5.82;100.00;101605.31;5052593;28;20234;-80
2021/10/01 04:51:58;;;;;;;5.77;3.70;;;;;;;5.88;100.00;101600.13;5035034;28;20915;-81
2021/10/01 04:54:25;;;;;;;3.83;3.17;;;;;;;5.88;100.00;101609.72;5040652;28;20041;-81
2021/10/01 04:56:51;;;;;;;4.77;3.43;;;;;;;5.87;100.00;101600.97;5053817;28;20036;-81
2021/10/01 04:59:18;;;;;;;6.13;3.63;;;;;;;5.92;100.00;101601.09;5067348;28;20045;-80
2021/10/01 05:01:45;;;;;;;5.13;3.30;;;;;;;5.95;100.00;101610.72;5066605;28;20037;-81
2021/10/01 05:04:12;;;;;;;5.20;4.00;;;;;;;6.01;100.00;101601.22;5049801;28;20044;-81
2021/10/01 05:06:39;;;;;;;6.23;3.83;;;;;;;5.93;100.00;101610.72;5049806;28;20508;-81
2021/10/01 05:09:06;;;;;;;6.97;3.50;;;;;;;5.91;100.00;101604.56;5069898;28;20586;-80
2021/10/01 05:11:37;;;;;;;4.23;3.50;;;;;;;5.94;100.00;101607.22;5056053;28;20086;-81
2021/10/01 05:14:03;;;;;;;6.23;3.63;;;;;;;5.97;100.00;101609.91;5054723;28;20045;-81
2021/10/01 05:16:30;;;;;;;5.17;3.50;;;;;;;5.99;100.00;101617.81;5057399;28;20097;-81
2021/10/01 05:18:57;;;;;;;4.83;3.93;;;;;;;5.96;100.00;101621.25;5038434;28;20048;-80
2021/10/01 05:21:24;;;;;;;6.03;3.50;;;;;;;6.05;100.00;101608.25;5071713;28;20086;-80
2021/10/01 05:23:50;;;;;;;35.03;15.90;;;;;;;6.02;100.00;101602.09;5072840;28;20511;-81
2021/10/01 05:26:17;;;;;;;15.00;8.63;;;;;;;5.99;100.00;101612.56;5056842;28;20086;-80
2021/10/01 05:28:43;;;;;;;58.80;32.97;;;;;;;6.05;100.00;101612.63;5055521;28;20036;-80
2021/10/01 05:31:10;;;;;;;88.23;49.80;;;;;;;6.03;100.00;101609.09;5073556;28;20044;-82
2021/10/01 05:33:37;;;;;;;21.73;12.87;;;;;;;6.08;100.00;101613.56;5055410;28;20039;-80
2021/10/01 05:36:04;;;;;;;12.13;7.97;;;;;;;6.12;100.00;101610.09;5031053;28;20048;-82
2021/10/01 05:38:31;;;;;;;8.87;6.93;;;;;;;6.14;100.00;101608.41;5038702;28;20623;-81
2021/10/01 05:40:57;;;;;;;6.20;4.03;;;;;;;6.28;100.00;101615.53;5053573;28;20525;-81
2021/10/01 05:43:25;;;;;;;6.70;5.53;;;;;;;6.23;100.00;101605.00;5048195;28;20045;-82
2021/10/01 05:45:54;;;;;;;8.00;4.23;;;;;;;6.31;100.00;101618.22;5062619;28;20047;-80
2021/10/01 05:48:22;;;;;;;4.50;4.10;;;;;;;6.38;100.00;101606.91;5039577;28;20127;-81
2021/10/01 05:50:54;;;;;;;12.27;5.80;;;;;;;6.49;100.00;101607.94;5057069;28;20048;-81
2021/10/01 05:56:08;;;;;;;5.00;4.43;;;;;;;6.50;100.00;101612.31;5061094;28;20037;-81
2021/10/01 05:58:35;;;;;;;4.43;3.63;;;;;;;6.53;100.00;101601.84;5019817;28;20049;-80
2021/10/01 06:01:03;;;;;;;4.87;3.63;;;;;;;6.63;100.00;101608.06;5038160;28;20056;-80
2021/10/01 06:03:30;;;;;;;4.73;3.53;;;;;;;6.70;100.00;101608.16;5045302;28;20052;-80
2021/10/01 06:05:57;;;;;;;5.60;3.50;;;;;;;6.75;100.00;101595.97;5055545;28;20102;-81
2021/10/01 06:08:23;;;;;;;6.23;3.87;;;;;;;6.81;100.00;101597.78;5026137;28;20052;-82
2021/10/01 06:10:50;;;;;;;4.20;3.80;;;;;;;6.84;100.00;101602.16;5053467;28;20045;-79
2021/10/01 06:13:17;;;;;;;4.00;3.43;;;;;;;6.94;100.00;101602.28;5023601;28;20098;-82
2021/10/01 06:15:44;;;;;;;3.57;3.10;;;;;;;7.08;100.00;101602.41;5033012;28;20044;-81
2021/10/01 06:18:11;;;;;;;4.73;3.47;;;;;;;7.12;100.00;101598.03;5053854;28;20044;-80
2021/10/01 06:20:37;;;;;;;4.37;3.37;;;;;;;7.14;100.00;101602.44;5054736;28;20099;-82
2021/10/01 06:23:04;;;;;;;5.77;3.40;;;;;;;7.30;100.00;101600.81;5051798;28;20052;-81
2021/10/01 06:25:31;;;;;;;4.47;3.07;;;;;;;7.34;100.00;101603.50;5056979;28;20041;-82
2021/10/01 06:27:58;;;;;;;6.07;3.27;;;;;;;7.39;100.00;101602.63;5092377;22;20052;-81
2021/10/01 06:30:24;;;;;;;6.03;3.23;;;;;;;7.49;100.00;101607.13;5052476;28;20051;-80
2021/10/01 06:32:51;;;;;;;4.70;2.93;;;;;;;7.61;100.00;101604.56;5037465;28;20037;-83
2021/10/01 06:35:18;;;;;;;5.07;2.90;;;;;;;7.66;100.00;101601.97;5021006;28;20073;-80
2021/10/01 06:37:44;;;;;;;3.17;2.80;;;;;;;7.78;99.43;101591.53;5056659;28;20037;-80
2021/10/01 06:40:11;;;;;;;4.28;2.78;;;;;;;7.84;100.00;101595.06;5038196;28;20044;-81
2021/10/01 06:42:41;;;;;;;4.72;2.50;;;;;;;7.93;100.00;101599.50;5054194;28;20044;-81
2021/10/01 06:45:26;;;;;;;3.65;3.08;;;;;;;8.08;98.37;101601.34;5035406;28;20048;-84
2021/10/01 06:48:46;;;;;;;4.87;2.50;;;;;;;8.13;98.30;101599.59;5037446;28;20041;-79
2021/10/01 08:18:52;;;;;;;3.15;1.65;;;;;;;11.37;80.51;101572.53;5040645;28;20047;-83
2021/10/01 08:21:25;;;;;;;3.10;2.03;;;;;;;11.48;78.88;101565.38;5038293;28;20512;-82
2021/10/01 08:24:10;;;;;;;2.08;1.70;;;;;;;11.51;78.23;101568.84;5041128;28;20037;-82
2021/10/01 08:26:37;;;;;;;2.13;1.63;;;;;;;11.68;75.73;101571.31;5052324;28;20102;-82
2021/10/01 08:29:04;;;;;;;2.92;2.10;;;;;;;11.64;77.01;101556.38;5049605;28;20036;-83
2021/10/01 08:31:30;;;;;;;2.28;1.40;;;;;;;11.66;78.88;101569.59;5052184;28;20044;-82
2021/10/01 08:33:58;;;;;;;3.67;1.70;;;;;;;11.62;78.71;101560.81;5050788;28;20048;-82
2021/10/01 08:36:25;;;;;;;2.20;1.60;;;;;;;11.77;75.83;101563.31;5052305;28;20041;-82
2021/10/01 08:38:52;;;;;;;1.88;1.60;;;;;;;11.78;75.59;101561.53;5050772;28;20044;-82
2021/10/01 08:41:19;;;;;;;3.22;1.80;;;;;;;11.80;74.20;101560.66;5052215;28;20044;-83
2021/10/01 08:43:46;;;;;;;3.33;1.85;;;;;;;11.91;73.25;101564.94;5034260;28;20501;-82
2021/10/01 08:46:14;;;;;;;3.03;1.70;;;;;;;11.91;75.04;101564.94;5030663;28;20112;-81
2021/10/01 08:48:42;;;;;;;4.72;1.80;;;;;;;12.16;73.20;101565.53;5014379;28;20501;-82
2021/10/01 08:51:11;;;;;;;2.40;2.03;;;;;;;12.23;71.60;101553.97;5015579;28;20049;-82
2021/10/01 08:53:38;;;;;;;2.55;1.63;;;;;;;12.33;71.02;101560.88;5014487;28;20048;-81
2021/10/01 08:56:10;;;;;;;5.18;1.77;;;;;;;12.54;70.98;101543.84;5068549;28;20480;-82
2021/10/01 08:58:37;;;;;;;2.72;1.85;;;;;;;12.59;68.72;101552.56;5034143;28;20048;-81
2021/10/01 09:01:04;;;;;;;2.85;1.58;;;;;;;12.57;68.00;101544.66;5035153;28;20044;-81
2021/10/01 09:03:31;;;;;;;2.58;1.92;;;;;;;12.71;70.57;101547.09;5030273;28;20049;-82
2021/10/01 09:05:57;;;;;;;2.33;1.70;;;;;;;12.88;70.53;101536.25;5048680;28;20037;-83
2021/10/01 09:08:24;;;;;;;2.25;1.77;;;;;;;12.95;66.19;101535.25;5030615;28;20037;-81
2021/10/01 09:11:03;;;;;;;2.60;1.80;;;;;;;13.01;67.85;101536.91;5031390;28;20049;-82
2021/10/01 09:13:30;;;;;;;2.30;1.90;;;;;;;13.06;68.63;101527.09;5046761;28;20440;-81
2021/10/01 09:16:04;;;;;;;3.53;1.90;;;;;;;13.22;64.82;101525.97;5028546;28;20091;-81
2021/10/01 09:18:36;;;;;;;3.17;1.45;;;;;;;13.27;67.35;101526.75;5030441;28;20120;-82
2021/10/01 09:21:20;;;;;;;2.80;2.10;;;;;;;13.39;65.09;101529.19;5015676;28;20045;-81
2021/10/01 09:23:57;;;;;;;2.15;1.60;;;;;;;13.57;69.66;101524.44;5034881;28;20048;-81
2021/10/01 09:26:25;;;;;;;2.40;1.52;;;;;;;13.75;62.91;101514.34;5047247;28;20115;-81
2021/10/01 09:29:00;;;;;;;3.78;2.03;;;;;;;13.87;64.79;101518.50;5048774;28;20448;-81
2021/10/01 09:31:33;;;;;;;2.55;1.35;;;;;;;14.03;64.15;101508.44;5035343;28;20044;-82
2021/10/01 09:34:01;;;;;;;2.13;1.45;;;;;;;14.18;65.79;101504.59;5066601;28;20413;-82
2021/10/01 09:36:28;;;;;;;2.30;1.38;;;;;;;14.47;62.53;101511.97;5035378;28;20525;-82
2021/10/01 09:38:55;;;;;;;3.10;1.60;;;;;;;14.54;62.20;101517.06;5033121;28;20041;-81
2021/10/01 09:41:26;;;;;;;3.85;1.67;;;;;;;14.63;61.45;101508.91;5031454;28;20045;-81
2021/10/01 09:44:11;;;;;;;2.10;1.40;;;;;;;14.69;60.84;101507.88;5035290;28;20569;-81
2021/10/01 09:46:43;;;;;;;4.10;1.70;;;;;;;14.74;60.45;101507.78;5055455;28;20653;-81
2021/10/01 09:49:17;;;;;;;6.35;1.60;;;;;;;14.82;61.66;101501.34;5054573;28;20558;-81
2021/10/01 09:51:53;;;;;;;2.58;1.42;;;;;;;14.93;62.23;101496.63;5054368;28;20045;-82
2021/10/01 09:54:21;;;;;;;2.65;1.40;;;;;;;15.00;59.27;101501.81;5038253;28;20086;-81
2021/10/01 09:56:48;;;;;;;6.10;1.50;;;;;;;15.00;60.08;101492.03;5037656;28;20044;-82
2021/10/01 09:59:17;;;;;;;2.50;1.30;;;;;;;15.05;60.55;101490.16;5042784;28;20052;-82
2021/10/01 10:02:10;;;;;;;2.55;1.30;;;;;;;15.10;61.28;101487.34;5036928;28;20127;-81
2021/10/01 10:04:54;;;;;;;2.95;1.17;;;;;;;15.26;60.05;101487.81;5051583;28;20450;-81
2021/10/01 10:07:26;;;;;;;2.72;1.60;;;;;;;15.32;59.27;101483.22;5033053;28;20063;-81
2021/10/01 10:09:55;;;;;;;3.25;1.40;;;;;;;15.41;60.46;101484.75;5041470;28;20170;-81
2021/10/01 10:12:34;;;;;;;4.72;1.60;;;;;;;-144.87;100.00;56979.78;5033172;28;20045;-81
2021/10/01 10:15:04;;;;;;;1.70;1.30;;;;;;;15.66;nan;101477.00;5018332;28;20068;-81
2021/10/01 10:17:31;;;;;;;3.38;1.60;;;;;;;15.77;nan;101475.75;5049709;28;20037;-82
2021/10/01 10:19:59;;;;;;;4.03;1.83;;;;;;;15.90;nan;101476.28;5043681;28;20045;-81
2021/10/01 10:22:28;;;;;;;2.35;1.35;;;;;;;16.07;nan;101473.13;5051505;28;20036;-81
2021/10/01 10:24:55;;;;;;;3.42;1.33;;;;;;;16.14;nan;101468.44;5070024;28;20051;-81
2021/10/01 10:27:24;;;;;;;2.63;1.23;;;;;;;16.19;nan;101461.19;5063112;28;20060;-81
2021/10/01 10:29:52;;;;;;;1.77;1.25;;;;;;;16.29;nan;101474.19;5035786;28;20044;-80
2021/10/01 10:32:23;;;;;;;2.35;1.50;;;;;;;16.35;nan;101465.13;5055830;28;20119;-80
2021/10/01 10:34:59;;;;;;;3.30;1.30;;;;;;;16.30;nan;101462.59;5018092;28;20047;-81
2021/10/01 10:37:45;;;;;;;3.30;1.25;;;;;;;16.40;nan;101459.66;5032824;28;20037;-80
2021/10/01 10:40:14;;;;;;;2.20;1.02;;;;;;;16.41;nan;101458.72;5050042;28;20547;-82
2021/10/01 10:42:44;;;;;;;1.60;1.10;;;;;;;16.47;nan;101443.38;5032483;28;20436;-81
2021/10/01 10:45:21;;;;;;;2.10;1.38;;;;;;;16.45;nan;101455.03;5050788;28;20033;-82
2021/10/01 10:47:55;;;;;;;2.88;1.77;;;;;;;16.55;nan;101440.47;5055283;28;20029;-80
2021/10/01 10:50:24;;;;;;;1.50;1.05;;;;;;;16.59;nan;101450.13;5065826;28;20039;-82
2021/10/01 10:53:13;;;;;;;3.25;1.48;;;;;;;16.56;nan;101440.44;5069915;28;20043;-80
2021/10/01 10:55:53;;;;;;;1.90;1.30;;;;;;;16.73;nan;101447.00;5070328;28;20037;-81
2021/10/01 11:00:54;;;;;;;2.58;1.00;;;;;;;16.81;nan;101428.94;5071198;28;20042;-81
2021/10/01 11:03:24;;;;;;;2.45;1.38;;;;;;;16.95;nan;101426.69;5052161;28;20045;-80
2021/10/01 11:06:10;;;;;;;2.42;1.10;;;;;;;17.13;nan;101428.72;5070431;28;20040;-80
2021/10/01 11:08:38;;;;;;;2.60;1.20;;;;;;;17.15;nan;101421.53;5068573;28;20064;-82
2021/10/01 11:11:26;;;;;;;1.80;1.10;;;;;;;17.16;nan;101423.28;5037252;28;20405;-81
2021/10/01 11:14:13;;;;;;;2.72;1.08;;;;;;;17.30;nan;101416.56;5050129;28;20037;-81
2021/10/01 11:16:44;;;;;;;2.55;1.13;;;;;;;17.36;nan;101424.34;5071146;28;20416;-81
2021/10/01 11:19:12;;;;;;;2.75;0.90;;;;;;;17.36;nan;101414.53;5066252;28;20036;-81
2021/10/01 11:21:43;;;;;;;4.57;1.17;;;;;;;17.34;nan;101405.72;5033357;28;20049;-81
2021/10/01 11:24:21;;;;;;;3.53;1.55;;;;;;;17.29;nan;101407.66;5016179;28;20048;-81
2021/10/01 11:26:51;;;;;;;2.47;1.33;;;;;;;17.23;nan;101410.56;5039802;28;20040;-81
2021/10/01 11:29:34;;;;;;;2.83;1.00;;;;;;;17.21;nan;101400.88;5034300;28;20749;-80
2021/10/01 11:32:05;;;;;;;2.17;1.20;;;;;;;17.24;nan;101404.31;5035354;28;20055;-82
2021/10/01 11:34:44;;;;;;;2.63;1.33;;;;;;;17.43;nan;101396.50;5053233;28;20037;-80
2021/10/01 11:37:32;;;;;;;2.60;1.10;;;;;;;17.57;nan;101395.97;5051518;28;20062;-82
2021/10/01 11:40:07;;;;;;;2.95;1.20;;;;;;;17.62;nan;101392.19;5052650;28;20037;-81
2021/10/01 11:42:42;;;;;;;2.15;1.10;;;;;;;17.78;nan;101392.50;5034992;28;20519;-82
2021/10/01 11:45:20;;;;;;;2.80;1.17;;;;;;;17.81;nan;101394.19;5038113;28;20051;-81
2021/10/01 11:47:59;;;;;;;3.38;1.67;;;;;;;17.84;nan;101386.06;5064690;28;20401;-81
2021/10/01 11:50:46;;;;;;;1.80;1.10;;;;;;;17.87;nan;101380.59;5052645;28;20059;-82
2021/10/01 11:53:25;;;;;;;1.88;1.25;;;;;;;17.67;nan;101392.03;5048175;28;20044;-81
2021/10/01 11:55:54;;;;;;;2.97;1.20;;;;;;;17.75;nan;101381.09;5033151;28;20552;-82
2021/10/01 11:58:23;;;;;;;2.70;1.40;;;;;;;17.70;nan;101370.56;5041969;28;20537;-81
2021/10/01 12:00:51;;;;;;;2.08;1.20;;;;;;;17.78;nan;101370.25;5048973;28;20041;-80
2021/10/01 12:03:19;;;;;;;3.40;1.13;;;;;;;17.80;nan;101371.06;5046274;28;20045;-80
2021/10/01 12:05:51;;;;;;;4.05;1.55;;;;;;;17.71;nan;101374.97;5035863;28;20051;-80
2021/10/01 12:08:23;;;;;;;2.25;1.40;;;;;;;17.61;nan;101365.53;5067874;28;20067;-80
2021/10/01 12:10:54;;;;;;;1.60;0.80;;;;;;;17.69;nan;101358.09;5052436;28;20040;-80
2021/10/01 12:13:32;;;;;;;3.92;1.20;;;;;;;17.68;nan;101354.56;5050128;28;20047;-81
2021/10/01 12:16:04;;;;;;;7.28;1.30;;;;;;;17.68;nan;101353.69;5063263;28;20044;-81
2021/10/01 12:18:41;;;;;;;2.50;1.20;;;;;;;17.82;nan;101345.13;5065697;28;20404;-80
2021/10/01 12:21:20;;;;;;;2.45;1.13;;;;;;;17.72;nan;101344.63;5066758;28;20063;-80
2021/10/01 12:24:12;;;;;;;2.70;1.33;;;;;;;17.80;nan;101336.31;5049111;28;20044;-80
2021/10/01 12:26:41;;;;;;;1.27;0.95;;;;;;;17.81;nan;101336.25;5067589;28;20050;-81
2021/10/01 12:29:23;;;;;;;1.42;1.00;;;;;;;17.88;nan;101335.09;5050277;28;20405;-81
2021/10/01 12:31:55;;;;;;;3.17;1.40;;;;;;;17.95;nan;101320.53;5031723;28;20044;-80
2021/10/01 12:34:27;;;;;;;1.80;0.85;;;;;;;17.93;nan;101322.41;5033396;28;20055;-82
2021/10/01 12:37:01;;;;;;;1.92;1.05;;;;;;;18.00;nan;101323.91;5067027;28;20397;-81
2021/10/01 12:39:29;;;;;;;;;;;;;;;18.01;nan;101322.09;5050254;28;20044;-81
2021/10/01 12:42:00;;;;;;;1.23;1.00;;;;;;;17.96;nan;101311.59;5065658;28;19928;-80
2021/10/01 12:44:32;;;;;;;2.65;1.10;;;;;;;18.14;nan;101317.97;5050158;28;20038;-80
2021/10/01 12:47:10;;;;;;;1.98;1.00;;;;;;;18.05;nan;101309.47;5049382;28;20719;-86
2021/10/01 12:49:37;;;;;;;2.42;1.20;;;;;;;18.12;nan;101300.25;5050837;28;20049;-80
2021/10/01 12:52:22;;;;;;;2.85;1.23;;;;;;;18.13;nan;101293.97;5049881;28;20627;-81
2021/10/01 12:55:01;;;;;;;1.40;1.05;;;;;;;18.18;nan;101292.88;5068131;28;20044;-81
2021/10/01 12:57:28;;;;;;;2.22;0.98;;;;;;;18.11;nan;101288.69;5064304;28;20616;-82
2021/10/01 13:00:01;;;;;;;2.95;1.15;;;;;;;18.05;nan;101294.28;5067905;28;20547;-84
2021/10/01 13:02:34;;;;;;;3.20;1.17;;;;;;;18.01;nan;101292.69;5067583;28;20056;-80
2021/10/01 13:05:05;;;;;;;2.47;1.00;;;;;;;17.95;nan;101292.94;5068194;28;20044;-82
2021/10/01 13:07:40;;;;;;;1.63;1.00;;;;;;;17.86;nan;101285.28;5046253;28;20036;-79
2021/10/01 13:10:27;;;;;;;1.77;1.00;;;;;;;17.86;nan;101280.81;5047144;28;20378;-80
2021/10/01 13:13:11;;;;;;;2.70;0.88;;;;;;;17.97;nan;101275.03;5049340;28;20044;-80
2021/10/01 13:15:40;;;;;;;1.15;0.90;;;;;;;17.96;nan;101266.13;5051971;28;20041;-82
2021/10/01 13:18:17;;;;;;;1.92;0.90;;;;;;;17.91;nan;101265.47;5044700;28;20037;-81
2021/10/01 13:20:46;;;;;;;3.97;1.08;;;;;;;17.93;nan;101266.28;5066566;28;20715;-81